createdAt,value
2018-11-11T00:00:54.764Z,84.37
2018-11-11T00:03:23.296Z,78.70
2018-11-11T00:05:52.028Z,89.62
2018-11-11T00:08:20.989Z,83.05
2018-11-11T00:10:49.516Z,84.80
2018-11-11T00:13:18.056Z,85.90
2018-11-11T00:15:46.687Z,75.92
2018-11-11T00:18:15.216Z,84.30
2018-11-11T00:20:43.755Z,87.47
2018-11-11T00:23:12.558Z,95.17
2018-11-11T00:25:41.167Z,94.22
2018-11-11T00:28:10.072Z,80.07
2018-11-11T00:30:38.640Z,73.05
2018-11-11T00:33:07.200Z,76.25
2018-11-11T00:35:35.732Z,79.53
2018-11-11T00:38:04.880Z,68.30
2018-11-11T00:40:33.685Z,71.15
2018-11-11T00:43:02.233Z,76.07
2018-11-11T00:45:30.808Z,66.05
2018-11-11T00:47:59.351Z,66.92
2018-11-11T00:50:28.532Z,68.00
2018-11-11T00:52:57.389Z,76.60
2018-11-11T00:55:30.443Z,69.60
2018-11-11T00:57:59.367Z,72.70
2018-11-11T01:00:28.140Z,67.60
2018-11-11T01:02:56.675Z,71.55
2018-11-11T01:05:25.559Z,62.88
2018-11-11T01:07:54.119Z,70.90
2018-11-11T01:10:23.055Z,69.30
2018-11-11T01:12:51.667Z,65.72
2018-11-11T01:15:20.207Z,62.08
2018-11-11T01:17:48.751Z,66.30
2018-11-11T01:20:18.163Z,73.97
2018-11-11T01:22:47.137Z,71.55
2018-11-11T01:25:16.815Z,72.27
2018-11-11T01:27:45.361Z,75.32
2018-11-11T01:30:13.939Z,67.82
2018-11-11T01:32:42.461Z,68.60
2018-11-11T01:35:13.339Z,69.42
2018-11-11T01:37:42.432Z,76.57
2018-11-11T01:40:11.110Z,75.60
2018-11-11T01:42:39.779Z,71.67
2018-11-11T01:45:12.475Z,73.83
2018-11-11T01:47:41.287Z,72.08
2018-11-11T01:50:10.847Z,67.78
2018-11-11T01:52:39.759Z,69.20
2018-11-11T01:55:09.528Z,63.42
2018-11-11T01:57:38.308Z,71.25
2018-11-11T02:00:08.816Z,62.48
2018-11-11T02:02:37.620Z,66.50
2018-11-11T02:05:07.135Z,53.92
2018-11-11T02:07:35.596Z,63.90
2018-11-11T02:10:05.518Z,63.05
2018-11-11T02:12:33.968Z,62.35
2018-11-11T02:15:02.572Z,59.27
2018-11-11T02:17:31.048Z,53.70
2018-11-11T02:19:59.771Z,56.98
2018-11-11T02:22:28.248Z,63.60
2018-11-11T02:24:57.048Z,62.15
2018-11-11T02:27:25.492Z,60.95
2018-11-11T02:29:53.928Z,59.63
2018-11-11T02:32:22.917Z,60.40
2018-11-11T02:34:51.733Z,57.45
2018-11-11T02:37:20.276Z,56.98
2018-11-11T02:39:48.864Z,55.53
2018-11-11T02:42:17.300Z,51.48
2018-11-11T02:44:45.747Z,55.10
2018-11-11T02:47:14.220Z,52.48
2018-11-11T02:49:42.672Z,52.27
2018-11-11T02:52:11.436Z,53.38
2018-11-11T02:54:39.906Z,60.50
2018-11-11T02:57:08.587Z,60.60
2018-11-11T02:59:37.154Z,69.25
2018-11-11T03:02:06.078Z,61.00
2018-11-11T03:04:34.821Z,54.70
2018-11-11T03:07:03.263Z,55.75
2018-11-11T03:09:31.839Z,57.10
2018-11-11T03:12:00.563Z,59.80
2018-11-11T03:14:29.031Z,51.25
2018-11-11T03:16:57.503Z,58.20
2018-11-11T03:19:26.108Z,53.50
2018-11-11T03:21:54.647Z,53.08
2018-11-11T03:24:23.147Z,53.65
2018-11-11T03:26:51.799Z,57.48
2018-11-11T03:29:20.244Z,62.62
2018-11-11T03:31:49.082Z,59.40
2018-11-11T03:34:17.552Z,55.78
2018-11-11T03:36:46.303Z,57.07
2018-11-11T03:39:14.799Z,52.13
2018-11-11T03:41:43.936Z,55.63
2018-11-11T03:44:12.375Z,59.25
2018-11-11T03:46:41.139Z,56.95
2018-11-11T03:49:09.685Z,58.45
2018-11-11T03:51:38.131Z,60.67
2018-11-11T03:54:06.694Z,65.62
2018-11-11T03:56:35.123Z,59.13
2018-11-11T03:59:04.048Z,61.63
2018-11-11T04:01:32.568Z,62.95
2018-11-11T04:04:01.035Z,59.80
2018-11-11T04:06:29.507Z,55.20
2018-11-11T04:08:57.970Z,56.77
2018-11-11T04:11:26.423Z,65.20
2018-11-11T04:13:54.887Z,66.07
2018-11-11T04:16:23.395Z,59.50
2018-11-11T04:18:52.147Z,58.20
2018-11-11T04:21:20.984Z,54.90
2018-11-11T04:23:49.727Z,59.88
2018-11-11T04:26:18.167Z,66.63
2018-11-11T04:28:46.926Z,65.70
2018-11-11T04:31:15.395Z,64.65
2018-11-11T04:33:44.103Z,60.33
2018-11-11T04:36:12.583Z,71.07
2018-11-11T04:38:41.097Z,69.80
2018-11-11T04:41:09.531Z,68.67
2018-11-11T04:43:38.011Z,67.15
2018-11-11T04:46:06.782Z,71.65
2018-11-11T04:48:35.315Z,75.87
2018-11-11T04:51:04.875Z,71.40
2018-11-11T04:53:33.424Z,64.65
2018-11-11T04:56:02.188Z,74.97
2018-11-11T04:58:31.103Z,71.37
2018-11-11T05:00:59.879Z,91.47
2018-11-11T05:03:28.371Z,72.32
2018-11-11T05:05:56.857Z,83.10
2018-11-11T05:08:25.474Z,78.83
2018-11-11T05:10:53.947Z,74.00
2018-11-11T05:13:22.880Z,73.03
2018-11-11T05:15:51.438Z,82.35
2018-11-11T05:18:19.906Z,75.07
2018-11-11T05:20:48.330Z,82.30
2018-11-11T05:23:16.895Z,83.45
2018-11-11T05:25:45.367Z,75.15
2018-11-11T05:28:14.147Z,76.97
2018-11-11T05:30:42.812Z,73.78
2018-11-11T05:33:11.291Z,74.40
2018-11-11T05:35:39.730Z,82.60
2018-11-11T05:38:08.190Z,81.05
2018-11-11T05:40:36.762Z,73.67
2018-11-11T05:43:05.518Z,81.67
2018-11-11T05:45:33.958Z,84.55
2018-11-11T05:48:02.531Z,82.17
2018-11-11T05:50:30.990Z,81.30
2018-11-11T05:52:59.442Z,82.95
2018-11-11T05:55:27.922Z,87.42
2018-11-11T05:57:56.570Z,85.72
2018-11-11T06:00:25.058Z,87.25
2018-11-11T06:02:53.650Z,82.57
2018-11-11T06:05:22.114Z,77.20
2018-11-11T06:08:05.346Z,77.42
2018-11-11T06:10:33.798Z,70.52
2018-11-11T06:13:02.262Z,75.22
2018-11-11T06:15:30.754Z,63.75
2018-11-11T06:17:59.517Z,78.87
2018-11-11T06:20:27.977Z,78.90
2018-11-11T06:22:56.612Z,75.65
2018-11-11T06:25:25.086Z,73.70
2018-11-11T06:27:53.538Z,77.97
2018-11-11T06:30:22.042Z,71.83
2018-11-11T06:32:50.978Z,82.37
2018-11-11T06:35:19.442Z,78.75
2018-11-11T06:37:48.206Z,86.12
2018-11-11T06:40:16.730Z,86.20
2018-11-11T06:42:45.473Z,88.45
2018-11-11T06:45:15.045Z,84.97
2018-11-11T06:47:44.237Z,79.37
2018-11-11T06:50:13.633Z,81.43
2018-11-11T06:52:42.646Z,84.40
2018-11-11T06:55:11.549Z,75.95
2018-11-11T06:57:40.265Z,83.92
2018-11-11T07:00:10.822Z,78.90
2018-11-11T07:02:40.438Z,75.15
2018-11-11T07:05:09.961Z,70.67
2018-11-11T07:07:38.807Z,67.30
2018-11-11T07:10:07.314Z,68.45
2018-11-11T07:12:35.762Z,75.67
2018-11-11T07:15:05.093Z,71.90
2018-11-11T07:17:33.853Z,80.80
2018-11-11T07:20:02.398Z,70.32
2018-11-11T07:22:30.870Z,91.87
2018-11-11T07:24:59.329Z,70.17
2018-11-11T07:27:27.890Z,76.60
2018-11-11T07:29:56.389Z,77.35
2018-11-11T07:32:24.857Z,77.62
2018-11-11T07:34:53.684Z,70.67
2018-11-11T07:37:22.713Z,79.70
2018-11-11T07:39:51.533Z,72.97
2018-11-11T07:42:20.056Z,76.45
2018-11-11T07:44:48.593Z,78.15
2018-11-11T07:47:17.405Z,69.03
2018-11-11T07:49:45.858Z,71.33
2018-11-11T07:52:14.817Z,69.35
2018-11-11T07:54:43.318Z,74.53
2018-11-11T07:57:11.834Z,72.03
2018-11-11T07:59:40.365Z,78.07
2018-11-11T08:02:09.430Z,72.00
2018-11-11T08:04:38.013Z,64.47
2018-11-11T08:07:07.238Z,62.53
2018-11-11T08:09:35.924Z,64.90
2018-11-11T08:12:06.001Z,66.47
2018-11-11T08:14:34.589Z,66.37
2018-11-11T08:17:03.193Z,69.30
2018-11-11T08:19:32.016Z,62.85
2018-11-11T08:22:00.597Z,64.17
2018-11-11T08:24:29.161Z,60.58
2018-11-11T08:26:57.740Z,63.58
2018-11-11T08:29:26.368Z,61.70
2018-11-11T08:31:55.057Z,70.15
2018-11-11T08:34:23.809Z,60.88
2018-11-11T08:36:52.429Z,62.65
2018-11-11T08:39:21.032Z,64.13
2018-11-11T08:41:49.576Z,65.25
2018-11-11T08:44:18.168Z,62.60
2018-11-11T08:46:46.800Z,58.35
2018-11-11T08:49:15.524Z,60.60
2018-11-11T08:51:44.084Z,67.90
2018-11-11T08:54:12.592Z,58.42
2018-11-11T08:56:41.056Z,63.85
2018-11-11T08:59:09.933Z,63.80
2018-11-11T09:01:38.440Z,65.05
2018-11-11T09:04:07.248Z,56.18
2018-11-11T09:06:35.717Z,62.88
2018-11-11T09:09:06.203Z,65.28
2018-11-11T09:11:35.045Z,60.98
2018-11-11T09:14:03.836Z,60.00
2018-11-11T09:16:33.109Z,67.25
2018-11-11T09:19:01.592Z,59.50
2018-11-11T09:21:30.540Z,62.70
2018-11-11T09:23:58.984Z,58.23
2018-11-11T09:26:28.447Z,58.25
2018-11-11T09:28:57.114Z,56.75
2018-11-11T09:31:25.736Z,57.30
2018-11-11T09:33:54.507Z,54.27
2018-11-11T09:36:22.987Z,52.93
2018-11-11T09:38:51.750Z,54.27
2018-11-11T09:41:20.416Z,51.83
2018-11-11T09:43:48.880Z,49.65
2018-11-11T09:46:17.335Z,57.55
2018-11-11T09:48:45.859Z,58.40
2018-11-11T09:51:14.344Z,52.58
2018-11-11T09:53:42.864Z,52.33
2018-11-11T09:56:11.480Z,55.75
2018-11-11T09:58:40.066Z,55.85
2018-11-11T10:01:09.620Z,50.78
2018-11-11T10:03:40.403Z,50.50
2018-11-11T10:06:22.396Z,52.43
2018-11-11T10:09:02.512Z,53.45
2018-11-11T10:11:36.544Z,44.65
2018-11-11T10:14:09.232Z,50.80
2018-11-11T10:16:56.291Z,50.80
2018-11-11T10:19:30.104Z,48.87
2018-11-11T10:22:19.727Z,53.45
2018-11-11T10:27:00.067Z,49.20
2018-11-11T10:29:33.790Z,47.53
2018-11-11T10:32:15.158Z,48.15
2018-11-11T10:34:49.029Z,49.15
2018-11-11T10:37:24.203Z,47.33
2018-11-11T10:39:59.998Z,44.58
2018-11-11T10:42:35.498Z,46.18
2018-11-11T10:45:40.046Z,47.25
2018-11-11T10:48:09.454Z,45.70
2018-11-11T10:50:44.753Z,50.65
2018-11-11T10:53:13.330Z,49.83
2018-11-11T10:55:41.957Z,43.95
2018-11-11T10:58:10.451Z,45.65
2018-11-11T11:00:44.391Z,44.40
2018-11-11T11:03:18.283Z,50.08
2018-11-11T11:05:47.177Z,46.58
2018-11-11T11:08:15.742Z,46.33
2018-11-11T11:10:44.442Z,48.73
2018-11-11T11:13:13.269Z,44.40
2018-11-11T11:15:41.862Z,47.35
2018-11-11T11:18:10.402Z,45.45
2018-11-11T11:20:38.958Z,39.80
2018-11-11T11:23:07.559Z,44.38
2018-11-11T11:25:36.268Z,41.18
2018-11-11T11:28:04.778Z,47.17
2018-11-11T11:30:33.238Z,43.87
2018-11-11T11:33:01.726Z,43.60
2018-11-11T11:35:30.490Z,45.58
2018-11-11T11:37:59.384Z,44.45
2018-11-11T11:40:27.886Z,41.37
2018-11-11T11:42:56.702Z,44.55
2018-11-11T11:45:25.765Z,44.20
2018-11-11T11:47:54.686Z,42.10
2018-11-11T11:50:23.558Z,44.15
2018-11-11T11:52:52.635Z,51.45
2018-11-11T11:55:21.770Z,48.13
2018-11-11T11:58:01.785Z,46.42
2018-11-11T12:00:30.537Z,47.53
2018-11-11T12:03:05.930Z,45.15
2018-11-11T12:05:34.702Z,52.08
2018-11-11T12:08:04.673Z,49.15
2018-11-11T12:10:33.581Z,48.10
2018-11-11T12:13:02.386Z,47.65
2018-11-11T12:15:31.397Z,49.58
2018-11-11T12:18:00.877Z,54.25
2018-11-11T12:20:29.977Z,51.23
2018-11-11T12:22:59.714Z,48.30
2018-11-11T12:25:28.875Z,46.13
2018-11-11T12:27:58.181Z,50.03
2018-11-11T12:30:27.183Z,47.55
2018-11-11T12:32:56.026Z,48.28
2018-11-11T12:35:24.894Z,44.85
2018-11-11T12:37:53.909Z,48.63
2018-11-11T12:40:22.907Z,47.47
2018-11-11T12:42:51.817Z,50.65
2018-11-11T12:45:20.733Z,45.98
2018-11-11T12:47:49.497Z,51.92
2018-11-11T12:50:18.377Z,48.40
2018-11-11T12:52:47.063Z,48.63
2018-11-11T12:55:15.973Z,47.10
2018-11-11T12:57:46.657Z,49.77
2018-11-11T13:00:21.689Z,47.83
2018-11-11T13:02:50.737Z,54.15
2018-11-11T13:05:19.458Z,51.13
2018-11-11T13:07:48.193Z,53.52
2018-11-11T13:10:16.872Z,57.73
2018-11-11T13:12:45.511Z,52.43
2018-11-11T13:15:14.841Z,52.03
2018-11-11T13:17:44.025Z,50.60
2018-11-11T13:20:14.133Z,49.93
2018-11-11T13:22:42.790Z,55.05
2018-11-11T13:25:12.249Z,52.53
2018-11-11T13:27:40.912Z,53.30
2018-11-11T13:30:11.376Z,56.98
2018-11-11T13:32:39.856Z,53.90
2018-11-11T13:35:10.220Z,52.03
2018-11-11T13:37:39.183Z,49.58
2018-11-11T13:41:13.684Z,52.05
2018-11-11T13:43:43.160Z,55.15
2018-11-11T13:46:34.049Z,54.35
2018-11-11T13:49:02.823Z,50.35
2018-11-11T13:51:31.375Z,61.37
2018-11-11T13:54:00.228Z,52.65
2018-11-11T13:56:39.898Z,53.00
2018-11-11T13:59:09.125Z,53.70
2018-11-11T14:01:38.097Z,52.35
2018-11-11T14:04:06.890Z,56.65
2018-11-11T14:06:35.498Z,59.55
2018-11-11T14:09:09.210Z,55.90
2018-11-11T14:11:37.918Z,52.25
2018-11-11T14:14:09.059Z,58.02
2018-11-11T14:16:38.360Z,53.92
2018-11-11T14:19:07.841Z,58.38
2018-11-11T14:21:36.378Z,59.98
2018-11-11T14:24:05.099Z,59.27
2018-11-11T14:26:33.951Z,56.02
2018-11-11T14:29:02.307Z,54.55
2018-11-11T14:31:30.774Z,55.58
2018-11-11T14:33:59.283Z,59.60
2018-11-11T14:36:27.887Z,57.50
2018-11-11T14:38:56.513Z,59.18
2018-11-11T14:41:24.982Z,60.40
2018-11-11T14:43:53.443Z,59.63
2018-11-11T14:46:22.206Z,57.48
2018-11-11T14:48:51.398Z,58.05
2018-11-11T14:51:20.415Z,62.45
2018-11-11T14:56:31.786Z,55.00
2018-11-11T14:59:00.888Z,63.33
2018-11-11T15:01:29.791Z,53.25
2018-11-11T15:04:05.383Z,64.60
2018-11-11T15:06:33.930Z,55.08
2018-11-11T15:09:03.090Z,56.73
2018-11-11T15:11:32.047Z,60.88
2018-11-11T15:14:00.690Z,54.65
2018-11-11T15:16:29.560Z,54.35
2018-11-11T15:19:01.436Z,64.00
2018-11-11T15:21:30.118Z,55.43
2018-11-11T15:23:59.250Z,57.35
2018-11-11T15:26:29.978Z,55.12
2018-11-11T15:28:59.999Z,55.12
2018-11-11T15:31:28.624Z,55.48
2018-11-11T15:33:57.474Z,51.18
2018-11-11T15:36:26.654Z,68.45
2018-11-11T15:38:55.906Z,61.25
2018-11-11T15:41:24.600Z,55.55
2018-11-11T15:43:53.150Z,59.95
2018-11-11T15:46:22.100Z,59.50
2018-11-11T15:48:53.328Z,61.55
2018-11-11T15:51:22.249Z,57.37
2018-11-11T16:10:35.297Z,59.75
2018-11-11T16:13:05.084Z,60.80
2018-11-11T16:15:38.377Z,63.83
2018-11-11T16:18:09.104Z,63.35
2018-11-11T16:26:29.384Z,59.18
2018-11-11T16:28:58.248Z,65.97
2018-11-11T16:31:27.201Z,64.25
2018-11-11T16:33:56.123Z,68.07
2018-11-11T16:36:25.182Z,66.90
2018-11-11T16:38:54.616Z,70.75
2018-11-11T16:41:23.772Z,67.43
2018-11-11T16:43:52.612Z,67.97
2018-11-11T16:46:21.871Z,76.02
2018-11-11T16:48:50.932Z,66.67
2018-11-11T16:51:20.528Z,71.37
2018-11-11T16:54:57.655Z,77.37
2018-11-11T16:57:51.337Z,81.28
2018-11-11T17:00:36.864Z,67.33
2018-11-11T17:03:07.233Z,75.25
2018-11-11T17:05:37.287Z,75.10
2018-11-11T17:08:06.591Z,70.30
2018-11-11T17:10:39.124Z,72.35
2018-11-11T17:43:01.974Z,59.98
2018-11-11T17:45:30.957Z,83.27
2018-11-11T17:48:00.290Z,78.83
2018-11-11T17:50:31.905Z,78.95
2018-11-11T17:59:34.874Z,75.12
2018-11-11T18:02:49.462Z,80.22
2018-11-11T18:05:20.134Z,77.42
2018-11-11T18:07:55.257Z,83.27
2018-11-11T18:10:27.464Z,82.23
2018-11-11T18:12:57.617Z,84.55
2018-11-11T18:15:28.637Z,76.47
2018-11-11T18:18:00.230Z,87.40
2018-11-11T18:23:41.034Z,88.72
2018-11-11T18:26:09.848Z,82.33
2018-11-11T18:28:38.584Z,84.50
2018-11-11T18:31:07.038Z,78.40
2018-11-11T18:33:35.862Z,88.62
2018-11-11T18:36:05.292Z,88.80
2018-11-11T18:38:34.161Z,87.78
2018-11-11T18:41:03.089Z,90.67
2018-11-11T18:43:32.002Z,88.75
2018-11-11T18:46:35.469Z,88.40
2018-11-11T18:49:05.373Z,81.90
2018-11-11T19:12:21.141Z,88.50
2018-11-11T19:14:50.060Z,97.45
2018-11-11T19:17:19.031Z,89.40
2018-11-11T19:19:54.113Z,87.22
2018-11-11T19:22:23.133Z,89.60
2018-11-11T19:27:43.840Z,93.95
2018-11-11T19:30:14.426Z,87.02
2018-11-11T19:33:14.257Z,98.62
2018-11-11T19:38:46.129Z,82.33
2018-11-11T19:41:18.023Z,93.27
2018-11-11T19:43:47.041Z,81.25
2018-11-11T19:46:15.851Z,93.40
2018-11-11T19:48:44.693Z,90.22
2018-11-11T20:16:58.097Z,90.47
2018-11-11T20:19:26.996Z,88.10
2018-11-11T20:21:55.841Z,85.50
2018-11-11T20:24:25.597Z,88.85
2018-11-11T20:26:56.645Z,82.08
2018-11-11T20:29:25.480Z,92.88
2018-11-11T20:31:54.623Z,99.90
2018-11-11T20:34:23.494Z,87.67
2018-11-11T20:36:52.394Z,89.97
2018-11-11T20:39:21.250Z,93.67
2018-11-11T20:41:50.172Z,90.92
2018-11-11T20:44:19.500Z,91.28
2018-11-11T20:46:48.240Z,100.75
2018-11-11T20:49:17.344Z,94.17
2018-11-11T20:51:46.296Z,87.75
2018-11-11T20:54:15.523Z,86.27
2018-11-11T20:56:45.448Z,88.40
2018-11-11T20:59:14.313Z,84.75
2018-11-11T21:01:47.055Z,91.00
2018-11-11T21:04:16.076Z,87.62
2018-11-11T21:06:45.461Z,84.40
2018-11-11T21:09:14.790Z,93.17
2018-11-11T21:11:53.689Z,91.37
2018-11-11T21:14:24.542Z,94.55
2018-11-11T21:16:55.187Z,91.80
2018-11-11T21:19:24.257Z,94.45
2018-11-11T21:21:53.176Z,93.78
2018-11-11T21:24:37.889Z,94.65
2018-11-11T21:27:07.094Z,90.77
2018-11-11T21:29:39.126Z,82.75
2018-11-11T21:32:10.588Z,90.85
2018-11-11T21:34:39.434Z,84.60
2018-11-11T21:37:08.534Z,82.57
2018-11-11T21:39:39.818Z,85.57
2018-11-11T21:42:09.002Z,91.63
2018-11-11T21:47:13.661Z,91.92
2018-11-11T21:49:43.041Z,83.53
2018-11-11T21:52:11.788Z,86.12
2018-11-11T21:54:40.590Z,91.75
2018-11-11T21:57:09.392Z,89.20
2018-11-11T21:59:38.477Z,88.50
2018-11-11T22:02:07.274Z,95.55
2018-11-11T22:04:36.730Z,96.07
2018-11-11T22:07:05.885Z,98.70
2018-11-11T22:09:34.717Z,89.80
2018-11-11T22:12:03.929Z,97.15
2018-11-11T22:17:07.802Z,97.53
2018-11-11T22:19:36.689Z,91.40
2018-11-11T22:22:07.851Z,100.42
2018-11-11T22:24:37.369Z,92.50
2018-11-11T22:27:10.691Z,98.80
2018-11-11T22:29:40.394Z,104.83
2018-11-11T22:32:09.478Z,111.90
2018-11-11T22:34:40.098Z,101.55
2018-11-11T22:37:12.053Z,107.90
2018-11-11T22:39:40.925Z,101.75
2018-11-11T22:42:10.423Z,110.55
2018-11-11T22:44:39.507Z,110.68
2018-11-11T22:47:08.375Z,107.40
2018-11-11T22:49:37.310Z,111.52
2018-11-11T22:52:06.448Z,111.52
2018-11-11T22:54:35.634Z,111.62
2018-11-11T22:57:06.553Z,103.20
2018-11-11T22:59:35.297Z,113.03
2018-11-11T23:02:05.250Z,109.75
2018-11-11T23:04:34.162Z,121.95
2018-11-11T23:07:03.513Z,116.03
2018-11-11T23:09:32.306Z,115.52
2018-11-11T23:12:01.092Z,121.85
2018-11-11T23:14:29.912Z,111.00
2018-11-11T23:16:58.911Z,112.55
2018-11-11T23:19:29.815Z,112.52
2018-11-11T23:21:58.936Z,116.28
2018-11-11T23:24:27.754Z,116.05
2018-11-11T23:26:56.408Z,111.17
2018-11-11T23:29:25.171Z,115.12
2018-11-11T23:31:53.908Z,111.95
2018-11-11T23:34:22.672Z,120.50
2018-11-11T23:36:51.451Z,120.87
2018-11-11T23:39:20.203Z,120.57
2018-11-11T23:41:49.187Z,121.97
2018-11-11T23:44:17.947Z,108.90
2018-11-11T23:46:46.623Z,104.23
2018-11-11T23:49:15.301Z,113.03
2018-11-11T23:51:44.015Z,113.55
2018-11-11T23:54:14.023Z,114.92
2018-11-11T23:56:42.731Z,116.35
2018-11-11T23:59:11.575Z,116.10
